CPX248 Details

Departure: Theodore Francis Green State Airport (KPVD)
Arrival: Miami International Airport (KMIA)
Route: JUMPR RIFLE J174 SWL CEBEE WETRO DIW AR22 JORAY HILEY7


Current Weather Information
KPVD 250951Z 27005KT 10SM FEW250 09/08 A3019 RMK AO2 SLP222 T00940083
KMIA 250953Z 05005KT 10SM SCT033 25/18 A3003 RMK AO2 SLP170 T02500178 $